sensor_id;sensor_type;location;lat;lon;timestamp;pressure;altitude;pressure_sealevel;temperature;humidity
37904;BME280;23738;50.422;18.758;2022-09-30T00:01:17;97711.30;;;8.98;77.47
37904;BME280;23738;50.422;18.758;2022-09-30T00:03:43;97709.38;;;8.96;77.44
37904;BME280;23738;50.422;18.758;2022-09-30T00:06:10;97706.14;;;8.94;77.49
37904;BME280;23738;50.422;18.758;2022-09-30T00:08:36;97708.09;;;8.90;77.52
37904;BME280;23738;50.422;18.758;2022-09-30T00:11:10;97714.78;;;8.92;77.72
37904;BME280;23738;50.422;18.758;2022-09-30T00:13:35;97714.95;;;8.97;77.88
37904;BME280;23738;50.422;18.758;2022-09-30T00:16:03;97714.63;;;9.03;77.95
37904;BME280;23738;50.422;18.758;2022-09-30T00:18:30;97713.50;;;9.08;78.01
37904;BME280;23738;50.422;18.758;2022-09-30T00:20:56;97709.63;;;9.10;78.01
37904;BME280;23738;50.422;18.758;2022-09-30T00:23:23;97716.20;;;9.10;77.99
37904;BME280;23738;50.422;18.758;2022-09-30T00:25:49;97719.66;;;9.11;78.02
37904;BME280;23738;50.422;18.758;2022-09-30T00:28:16;97722.08;;;9.12;78.06
37904;BME280;23738;50.422;18.758;2022-09-30T00:30:42;97722.19;;;9.15;78.22
37904;BME280;23738;50.422;18.758;2022-09-30T00:33:08;97723.88;;;9.18;78.19
37904;BME280;23738;50.422;18.758;2022-09-30T00:35:35;97726.10;;;9.21;78.25
37904;BME280;23738;50.422;18.758;2022-09-30T00:38:02;97729.04;;;9.23;78.20
37904;BME280;23738;50.422;18.758;2022-09-30T00:40:27;97726.81;;;9.19;78.19
37904;BME280;23738;50.422;18.758;2022-09-30T00:42:54;97731.78;;;9.18;78.20
37904;BME280;23738;50.422;18.758;2022-09-30T00:45:21;97733.09;;;9.18;78.23
37904;BME280;23738;50.422;18.758;2022-09-30T00:47:50;97741.00;;;9.18;78.42
37904;BME280;23738;50.422;18.758;2022-09-30T00:50:44;97747.99;;;9.22;78.57
37904;BME280;23738;50.422;18.758;2022-09-30T00:56:12;97738.88;;;9.25;78.54
37904;BME280;23738;50.422;18.758;2022-09-30T00:58:50;97739.38;;;9.24;78.54
37904;BME280;23738;50.422;18.758;2022-09-30T01:01:20;97741.70;;;9.23;78.54
37904;BME280;23738;50.422;18.758;2022-09-30T01:03:53;97739.88;;;9.24;78.67
37904;BME280;23738;50.422;18.758;2022-09-30T01:06:22;97719.05;;;9.15;78.83
37904;BME280;23738;50.422;18.758;2022-09-30T01:08:48;97746.44;;;9.30;78.82
37904;BME280;23738;50.422;18.758;2022-09-30T01:11:15;97742.34;;;9.34;78.98
37904;BME280;23738;50.422;18.758;2022-09-30T01:13:43;97749.44;;;9.40;78.93
37904;BME280;23738;50.422;18.758;2022-09-30T01:16:29;97755.59;;;9.43;78.90
37904;BME280;23738;50.422;18.758;2022-09-30T01:19:23;97749.80;;;9.44;78.88
37904;BME280;23738;50.422;18.758;2022-09-30T01:24:44;97750.27;;;9.50;78.92
37904;BME280;23738;50.422;18.758;2022-09-30T01:27:58;97747.44;;;9.51;78.90
37904;BME280;23738;50.422;18.758;2022-09-30T01:33:40;97740.27;;;9.49;78.85
37904;BME280;23738;50.422;18.758;2022-09-30T01:36:34;97736.52;;;9.48;78.89
37904;BME280;23738;50.422;18.758;2022-09-30T01:42:37;97739.02;;;9.52;79.01
37904;BME280;23738;50.422;18.758;2022-09-30T01:45:25;97744.18;;;9.56;79.01
37904;BME280;23738;50.422;18.758;2022-09-30T01:47:57;97744.18;;;9.56;78.94
37904;BME280;23738;50.422;18.758;2022-09-30T01:50:28;97748.34;;;9.54;78.97
37904;BME280;23738;50.422;18.758;2022-09-30T01:53:13;97757.47;;;9.52;78.92
37904;BME280;23738;50.422;18.758;2022-09-30T01:55:54;97763.05;;;9.53;79.03
37904;BME280;23738;50.422;18.758;2022-09-30T01:58:39;97761.31;;;9.56;79.14
37904;BME280;23738;50.422;18.758;2022-09-30T02:01:22;97769.39;;;9.61;79.09
37904;BME280;23738;50.422;18.758;2022-09-30T02:03:53;97759.45;;;9.63;79.05
37904;BME280;23738;50.422;18.758;2022-09-30T02:06:25;97756.20;;;9.61;78.99
37904;BME280;23738;50.422;18.758;2022-09-30T02:09:08;97760.58;;;9.58;78.94
37904;BME280;23738;50.422;18.758;2022-09-30T02:11:36;97760.30;;;9.57;79.03
37904;BME280;23738;50.422;18.758;2022-09-30T02:19:45;97752.39;;;9.57;79.02
37904;BME280;23738;50.422;18.758;2022-09-30T02:22:18;97760.06;;;9.58;79.09
37904;BME280;23738;50.422;18.758;2022-09-30T02:24:46;97759.80;;;9.57;79.08
37904;BME280;23738;50.422;18.758;2022-09-30T02:27:20;97751.88;;;9.57;79.06
37904;BME280;23738;50.422;18.758;2022-09-30T02:29:51;97749.25;;;9.57;79.09
37904;BME280;23738;50.422;18.758;2022-09-30T02:32:23;97749.02;;;9.59;79.24
37904;BME280;23738;50.422;18.758;2022-09-30T02:35:00;97757.83;;;9.62;79.24
37904;BME280;23738;50.422;18.758;2022-09-30T02:37:43;97756.51;;;9.62;79.23
37904;BME280;23738;50.422;18.758;2022-09-30T02:40:22;97755.09;;;9.59;79.23
37904;BME280;23738;50.422;18.758;2022-09-30T02:43:04;97755.60;;;9.59;79.21
37904;BME280;23738;50.422;18.758;2022-09-30T02:45:36;97762.64;;;9.56;79.24
37904;BME280;23738;50.422;18.758;2022-09-30T02:48:36;97763.45;;;9.56;79.34
37904;BME280;23738;50.422;18.758;2022-09-30T02:51:18;97764.92;;;9.62;79.47
37904;BME280;23738;50.422;18.758;2022-09-30T02:54:01;97764.22;;;9.64;79.41
37904;BME280;23738;50.422;18.758;2022-09-30T02:56:46;97766.64;;;9.65;79.42
37904;BME280;23738;50.422;18.758;2022-09-30T02:59:16;97766.04;;;9.63;79.38
37904;BME280;23738;50.422;18.758;2022-09-30T03:01:42;97770.20;;;9.62;79.38
37904;BME280;23738;50.422;18.758;2022-09-30T03:04:10;97771.22;;;9.60;79.44
37904;BME280;23738;50.422;18.758;2022-09-30T03:06:38;97764.52;;;9.65;79.59
37904;BME280;23738;50.422;18.758;2022-09-30T03:09:04;97765.91;;;9.67;79.64
37904;BME280;23738;50.422;18.758;2022-09-30T03:11:31;97768.13;;;9.70;79.61
37904;BME280;23738;50.422;18.758;2022-09-30T03:14:15;97777.16;;;9.72;79.59
37904;BME280;23738;50.422;18.758;2022-09-30T03:20:12;97780.41;;;9.67;79.57
37904;BME280;23738;50.422;18.758;2022-09-30T03:28:08;97778.03;;;9.75;79.65
37904;BME280;23738;50.422;18.758;2022-09-30T03:31:20;97779.58;;;9.73;79.61
37904;BME280;23738;50.422;18.758;2022-09-30T03:42:42;97780.59;;;9.72;79.88
37904;BME280;23738;50.422;18.758;2022-09-30T03:45:16;97780.90;;;9.73;79.78
37904;BME280;23738;50.422;18.758;2022-09-30T03:47:51;97784.86;;;9.73;79.84
37904;BME280;23738;50.422;18.758;2022-09-30T03:50:22;97786.89;;;9.71;79.80
37904;BME280;23738;50.422;18.758;2022-09-30T03:52:48;97778.38;;;9.69;79.79
37904;BME280;23738;50.422;18.758;2022-09-30T03:55:16;97779.89;;;9.68;79.79
37904;BME280;23738;50.422;18.758;2022-09-30T03:57:44;97787.09;;;9.70;79.95
37904;BME280;23738;50.422;18.758;2022-09-30T04:00:11;97783.23;;;9.72;80.00
37904;BME280;23738;50.422;18.758;2022-09-30T04:02:37;97780.66;;;9.75;80.03
37904;BME280;23738;50.422;18.758;2022-09-30T04:05:04;97778.03;;;9.75;79.98
37904;BME280;23738;50.422;18.758;2022-09-30T04:07:31;97777.16;;;9.72;79.95
37904;BME280;23738;50.422;18.758;2022-09-30T04:09:56;97783.85;;;9.68;79.96
37904;BME280;23738;50.422;18.758;2022-09-30T04:12:22;97782.23;;;9.67;80.12
37904;BME280;23738;50.422;18.758;2022-09-30T04:14:48;97781.01;;;9.69;80.25
37904;BME280;23738;50.422;18.758;2022-09-30T04:17:14;97785.73;;;9.76;80.29
37904;BME280;23738;50.422;18.758;2022-09-30T04:19:40;97781.98;;;9.75;80.21
37904;BME280;23738;50.422;18.758;2022-09-30T04:22:06;97778.53;;;9.74;80.30
37904;BME280;23738;50.422;18.758;2022-09-30T04:24:33;97774.58;;;9.74;80.37
37904;BME280;23738;50.422;18.758;2022-09-30T04:27:00;97771.88;;;9.72;80.47
37904;BME280;23738;50.422;18.758;2022-09-30T04:29:26;97778.07;;;9.68;80.41
37904;BME280;23738;50.422;18.758;2022-09-30T04:31:52;97780.10;;;9.66;80.49
37904;BME280;23738;50.422;18.758;2022-09-30T04:34:18;97781.01;;;9.69;80.62
37904;BME280;23738;50.422;18.758;2022-09-30T04:36:44;97783.74;;;9.72;80.65
37904;BME280;23738;50.422;18.758;2022-09-30T04:39:10;97782.49;;;9.74;80.67
37904;BME280;23738;50.422;18.758;2022-09-30T04:41:36;97782.49;;;9.74;80.69
37904;BME280;23738;50.422;18.758;2022-09-30T04:44:02;97789.39;;;9.75;80.71
37904;BME280;23738;50.422;18.758;2022-09-30T04:46:32;97787.50;;;9.73;80.78
37904;BME280;23738;50.422;18.758;2022-09-30T04:49:01;97788.58;;;9.75;80.84
37904;BME280;23738;50.422;18.758;2022-09-30T04:51:30;97799.83;;;9.79;81.03
37904;BME280;23738;50.422;18.758;2022-09-30T04:53:56;97803.98;;;9.78;80.89
37904;BME280;23738;50.422;18.758;2022-09-30T04:56:22;97803.98;;;9.78;80.93
37904;BME280;23738;50.422;18.758;2022-09-30T04:58:51;97805.52;;;9.76;80.94
37904;BME280;23738;50.422;18.758;2022-09-30T05:01:18;97815.14;;;9.80;81.07
37904;BME280;23738;50.422;18.758;2022-09-30T05:03:44;97814.13;;;9.81;81.25
37904;BME280;23738;50.422;18.758;2022-09-30T05:06:12;97822.41;;;9.84;81.27
37904;BME280;23738;50.422;18.758;2022-09-30T05:08:39;97820.17;;;9.88;81.28
37904;BME280;23738;50.422;18.758;2022-09-30T05:11:07;97818.11;;;9.90;81.30
37904;BME280;23738;50.422;18.758;2022-09-30T05:13:38;97816.58;;;9.91;81.31
37904;BME280;23738;50.422;18.758;2022-09-30T05:16:06;97821.56;;;9.90;81.23
37904;BME280;23738;50.422;18.758;2022-09-30T05:18:32;97820.55;;;9.91;81.35
37904;BME280;23738;50.422;18.758;2022-09-30T05:20:59;97811.24;;;9.89;81.42
37904;BME280;23738;50.422;18.758;2022-09-30T05:23:27;97817.08;;;9.97;81.51
37904;BME280;23738;50.422;18.758;2022-09-30T05:25:55;97823.83;;;10.03;81.50
37904;BME280;23738;50.422;18.758;2022-09-30T05:28:22;97821.50;;;10.04;81.49
37904;BME280;23738;50.422;18.758;2022-09-30T05:30:48;97826.78;;;10.04;81.47
37904;BME280;23738;50.422;18.758;2022-09-30T05:33:17;97819.98;;;9.98;81.51
37904;BME280;23738;50.422;18.758;2022-09-30T05:35:42;97817.75;;;10.02;81.54
37904;BME280;23738;50.422;18.758;2022-09-30T05:38:08;97823.69;;;10.07;81.65
37904;BME280;23738;50.422;18.758;2022-09-30T05:40:38;97824.90;;;10.11;81.68
37904;BME280;23738;50.422;18.758;2022-09-30T05:43:05;97824.45;;;10.14;81.69
37904;BME280;23738;50.422;18.758;2022-09-30T05:45:32;97828.00;;;10.17;81.72
37904;BME280;23738;50.422;18.758;2022-09-30T05:47:59;97829.95;;;10.19;81.73
37904;BME280;23738;50.422;18.758;2022-09-30T05:50:26;97830.05;;;10.21;81.72
37904;BME280;23738;50.422;18.758;2022-09-30T05:52:52;97836.70;;;10.24;81.74
37904;BME280;23738;50.422;18.758;2022-09-30T05:55:19;97844.00;;;10.28;81.84
37904;BME280;23738;50.422;18.758;2022-09-30T05:57:50;97840.41;;;10.32;81.86
37904;BME280;23738;50.422;18.758;2022-09-30T06:00:18;97841.42;;;10.31;81.81
37904;BME280;23738;50.422;18.758;2022-09-30T06:02:44;97837.86;;;10.34;81.86
37904;BME280;23738;50.422;18.758;2022-09-30T06:05:11;97843.74;;;10.37;81.87
37904;BME280;23738;50.422;18.758;2022-09-30T06:07:37;97853.13;;;10.42;81.88
37904;BME280;23738;50.422;18.758;2022-09-30T06:10:05;97843.69;;;10.43;81.96
37904;BME280;23738;50.422;18.758;2022-09-30T06:12:33;97855.30;;;10.51;82.06
37904;BME280;23738;50.422;18.758;2022-09-30T06:15:01;97850.83;;;10.52;81.94
37904;BME280;23738;50.422;18.758;2022-09-30T06:17:27;97855.45;;;10.56;81.96
37904;BME280;23738;50.422;18.758;2022-09-30T06:19:53;97860.02;;;10.58;81.88
37904;BME280;23738;50.422;18.758;2022-09-30T06:22:19;97866.31;;;10.57;81.83
37904;BME280;23738;50.422;18.758;2022-09-30T06:24:45;97871.09;;;10.58;81.90
37904;BME280;23738;50.422;18.758;2022-09-30T06:27:11;97870.16;;;10.61;82.02
37904;BME280;23738;50.422;18.758;2022-09-30T06:29:37;97873.67;;;10.64;81.96
37904;BME280;23738;50.422;18.758;2022-09-30T06:32:05;97879.14;;;10.69;81.99
37904;BME280;23738;50.422;18.758;2022-09-30T06:34:31;97878.59;;;10.70;81.94
37904;BME280;23738;50.422;18.758;2022-09-30T06:36:57;97877.82;;;10.69;81.91
37904;BME280;23738;50.422;18.758;2022-09-30T06:39:23;97883.88;;;10.70;81.85
37904;BME280;23738;50.422;18.758;2022-09-30T06:41:50;97888.66;;;10.70;81.92
37904;BME280;23738;50.422;18.758;2022-09-30T06:44:16;97895.95;;;10.75;82.01
37904;BME280;23738;50.422;18.758;2022-09-30T06:46:42;97887.16;;;10.81;82.00
37904;BME280;23738;50.422;18.758;2022-09-30T06:49:08;97895.47;;;10.85;81.96
37904;BME280;23738;50.422;18.758;2022-09-30T06:51:34;97890.19;;;10.85;81.93
37904;BME280;23738;50.422;18.758;2022-09-30T06:54:00;97890.70;;;10.84;81.90
37904;BME280;23738;50.422;18.758;2022-09-30T06:56:27;97897.21;;;10.82;81.88
37904;BME280;23738;50.422;18.758;2022-09-30T06:58:53;97894.88;;;10.83;81.97
37904;BME280;23738;50.422;18.758;2022-09-30T07:01:21;97904.57;;;10.89;82.13
37904;BME280;23738;50.422;18.758;2022-09-30T07:03:49;97901.05;;;10.95;82.09
37904;BME280;23738;50.422;18.758;2022-09-30T07:06:17;97896.58;;;10.95;82.02
37904;BME280;23738;50.422;18.758;2022-09-30T07:08:43;97904.30;;;10.97;82.04
37904;BME280;23738;50.422;18.758;2022-09-30T07:11:10;97896.87;;;10.96;82.06
37904;BME280;23738;50.422;18.758;2022-09-30T07:13:44;97891.59;;;10.96;82.05
37904;BME280;23738;50.422;18.758;2022-09-30T07:16:13;97891.09;;;10.97;82.12
37904;BME280;23738;50.422;18.758;2022-09-30T07:18:40;97893.66;;;11.03;82.21
37904;BME280;23738;50.422;18.758;2022-09-30T07:21:11;97902.79;;;11.07;82.22
37904;BME280;23738;50.422;18.758;2022-09-30T07:23:40;97891.03;;;11.12;82.26
37904;BME280;23738;50.422;18.758;2022-09-30T07:26:08;97900.08;;;11.14;82.29
37904;BME280;23738;50.422;18.758;2022-09-30T07:28:35;97898.76;;;11.14;82.22
37904;BME280;23738;50.422;18.758;2022-09-30T07:31:13;97899.66;;;11.17;82.30
37904;BME280;23738;50.422;18.758;2022-09-30T07:33:44;97903.38;;;11.19;82.28
37904;BME280;23738;50.422;18.758;2022-09-30T07:36:11;97901.33;;;11.21;82.42
37904;BME280;23738;50.422;18.758;2022-09-30T07:38:41;97905.44;;;11.26;82.49
37904;BME280;23738;50.422;18.758;2022-09-30T07:41:11;97903.69;;;11.29;82.53
37904;BME280;23738;50.422;18.758;2022-09-30T07:43:41;97909.88;;;11.32;82.48
37904;BME280;23738;50.422;18.758;2022-09-30T07:46:20;97912.01;;;11.32;82.40
37904;BME280;23738;50.422;18.758;2022-09-30T07:48:50;97916.27;;;11.33;82.53
37904;BME280;23738;50.422;18.758;2022-09-30T07:51:28;97913.17;;;11.36;82.58
37904;BME280;23738;50.422;18.758;2022-09-30T07:54:01;97914.88;;;11.40;82.71
37904;BME280;23738;50.422;18.758;2022-09-30T07:56:31;97923.33;;;11.48;82.74
37904;BME280;23738;50.422;18.758;2022-09-30T07:58:59;97919.80;;;11.55;82.73
37904;BME280;23738;50.422;18.758;2022-09-30T08:01:30;97920.67;;;11.58;82.81
37904;BME280;23738;50.422;18.758;2022-09-30T08:03:58;97930.09;;;11.63;82.79
37904;BME280;23738;50.422;18.758;2022-09-30T08:06:26;97925.61;;;11.63;82.75
37904;BME280;23738;50.422;18.758;2022-09-30T08:08:55;97932.36;;;11.68;82.80
37904;BME280;23738;50.422;18.758;2022-09-30T08:11:22;97934.41;;;11.66;82.75
37904;BME280;23738;50.422;18.758;2022-09-30T08:13:52;97932.74;;;11.72;82.87
37904;BME280;23738;50.422;18.758;2022-09-30T08:16:20;97933.31;;;11.74;82.75
37904;BME280;23738;50.422;18.758;2022-09-30T08:18:47;97931.17;;;11.73;82.80
37904;BME280;23738;50.422;18.758;2022-09-30T08:21:12;97938.20;;;11.77;82.92
37904;BME280;23738;50.422;18.758;2022-09-30T08:23:39;97934.15;;;11.83;83.12
37904;BME280;23738;50.422;18.758;2022-09-30T08:26:07;97935.13;;;11.89;82.96
37904;BME280;23738;50.422;18.758;2022-09-30T08:28:35;97936.20;;;11.91;83.01
37904;BME280;23738;50.422;18.758;2022-09-30T08:31:11;97939.66;;;11.91;83.02
37904;BME280;23738;50.422;18.758;2022-09-30T08:33:39;97940.03;;;11.95;83.14
37904;BME280;23738;50.422;18.758;2022-09-30T08:36:20;97935.60;;;11.98;83.08
37904;BME280;23738;50.422;18.758;2022-09-30T08:38:50;97949.30;;;12.04;83.28
37904;BME280;23738;50.422;18.758;2022-09-30T08:53:06;97938.84;;;12.09;83.19
37904;BME280;23738;50.422;18.758;2022-09-30T08:55:40;97945.83;;;12.12;83.24
37904;BME280;23738;50.422;18.758;2022-09-30T08:58:21;97943.91;;;12.10;83.19
37904;BME280;23738;50.422;18.758;2022-09-30T09:00:50;97954.58;;;12.13;83.25
37904;BME280;23738;50.422;18.758;2022-09-30T09:03:21;97956.17;;;12.14;83.23
37904;BME280;23738;50.422;18.758;2022-09-30T09:08:52;97954.91;;;12.25;83.53
37904;BME280;23738;50.422;18.758;2022-09-30T09:20:48;97966.15;;;12.30;83.16
37904;BME280;23738;50.422;18.758;2022-09-30T09:23:13;97967.42;;;12.28;83.19
37904;BME280;23738;50.422;18.758;2022-09-30T09:25:39;97964.77;;;12.28;83.25
37904;BME280;23738;50.422;18.758;2022-09-30T09:30:59;97974.09;;;12.30;83.25
37904;BME280;23738;50.422;18.758;2022-09-30T09:33:28;97977.84;;;12.32;83.22
37904;BME280;23738;50.422;18.758;2022-09-30T09:36:06;97971.23;;;12.32;83.22
37904;BME280;23738;50.422;18.758;2022-09-30T09:44:29;97971.00;;;12.42;83.31
37904;BME280;23738;50.422;18.758;2022-09-30T09:47:13;97977.02;;;12.40;83.25
37904;BME280;23738;50.422;18.758;2022-09-30T09:49:44;97980.48;;;12.41;83.23
37904;BME280;23738;50.422;18.758;2022-09-30T09:54:59;97978.05;;;12.39;83.35
37904;BME280;23738;50.422;18.758;2022-09-30T09:57:26;97981.88;;;12.43;83.51
37904;BME280;23738;50.422;18.758;2022-09-30T09:59:56;97980.47;;;12.50;83.52
37904;BME280;23738;50.422;18.758;2022-09-30T10:03:04;97986.58;;;12.50;83.47
37904;BME280;23738;50.422;18.758;2022-09-30T10:05:33;97982.09;;;12.51;83.39
37904;BME280;23738;50.422;18.758;2022-09-30T10:08:14;97980.03;;;12.53;83.46
37904;BME280;23738;50.422;18.758;2022-09-30T10:10:54;97976.05;;;12.53;83.54
37904;BME280;23738;50.422;18.758;2022-09-30T10:13:24;97975.48;;;12.62;83.73
37904;BME280;23738;50.422;18.758;2022-09-30T10:15:53;97983.63;;;12.70;83.72
37904;BME280;23738;50.422;18.758;2022-09-30T10:18:26;97981.28;;;12.71;83.60
37904;BME280;23738;50.422;18.758;2022-09-30T10:20:58;97988.20;;;12.72;83.55
37904;BME280;23738;50.422;18.758;2022-09-30T10:23:28;97985.77;;;12.71;83.63
37904;BME280;23738;50.422;18.758;2022-09-30T10:28:59;97979.92;;;12.80;83.83
37904;BME280;23738;50.422;18.758;2022-09-30T10:31:31;97986.41;;;12.84;83.87
37904;BME280;23738;50.422;18.758;2022-09-30T10:34:24;97989.61;;;12.86;83.72
37904;BME280;23738;50.422;18.758;2022-09-30T10:36:53;97997.64;;;12.89;83.71
37904;BME280;23738;50.422;18.758;2022-09-30T10:39:38;98005.00;;;12.87;83.72
37904;BME280;23738;50.422;18.758;2022-09-30T10:42:04;97992.55;;;12.87;83.84
37904;BME280;23738;50.422;18.758;2022-09-30T10:44:43;98005.78;;;12.96;83.84
37904;BME280;23738;50.422;18.758;2022-09-30T10:47:17;98004.05;;;13.02;83.86
37904;BME280;23738;50.422;18.758;2022-09-30T10:49:55;98008.98;;;13.08;83.87
37904;BME280;23738;50.422;18.758;2022-09-30T10:52:31;98008.98;;;13.08;83.75
37904;BME280;23738;50.422;18.758;2022-09-30T10:55:05;98003.83;;;13.03;83.69
37904;BME280;23738;50.422;18.758;2022-09-30T10:57:48;98008.18;;;13.07;83.78
37904;BME280;23738;50.422;18.758;2022-09-30T11:00:20;98010.88;;;13.10;83.76
37904;BME280;23738;50.422;18.758;2022-09-30T11:05:39;98014.84;;;13.10;83.59
37904;BME280;23738;50.422;18.758;2022-09-30T11:10:59;98017.98;;;13.07;83.60
37904;BME280;23738;50.422;18.758;2022-09-30T11:16:45;98022.91;;;13.03;83.47
37904;BME280;23738;50.422;18.758;2022-09-30T11:19:25;98020.77;;;13.02;83.53
37904;BME280;23738;50.422;18.758;2022-09-30T11:22:24;98025.05;;;13.03;83.45
37904;BME280;23738;50.422;18.758;2022-09-30T11:24:53;98025.78;;;13.01;83.56
37904;BME280;23738;50.422;18.758;2022-09-30T11:27:29;98025.78;;;13.01;83.56
37904;BME280;23738;50.422;18.758;2022-09-30T11:30:08;98028.95;;;13.01;83.43
37904;BME280;23738;50.422;18.758;2022-09-30T11:36:00;98029.69;;;13.08;83.37
37904;BME280;23738;50.422;18.758;2022-09-30T11:38:40;98027.47;;;13.05;83.29
37904;BME280;23738;50.422;18.758;2022-09-30T11:46:58;98039.63;;;13.03;83.33
37904;BME280;23738;50.422;18.758;2022-09-30T11:50:00;98046.03;;;13.05;83.40
37904;BME280;23738;50.422;18.758;2022-09-30T11:52:53;98047.95;;;13.07;83.37
37904;BME280;23738;50.422;18.758;2022-09-30T11:55:48;98048.83;;;13.01;83.35
37904;BME280;23738;50.422;18.758;2022-09-30T11:58:24;98048.83;;;13.01;83.35
37904;BME280;23738;50.422;18.758;2022-09-30T12:01:15;98050.12;;;12.98;83.20
37904;BME280;23738;50.422;18.758;2022-09-30T12:04:08;98052.59;;;13.02;83.24
37904;BME280;23738;50.422;18.758;2022-09-30T12:06:43;98046.03;;;13.05;83.20
37904;BME280;23738;50.422;18.758;2022-09-30T12:09:20;98046.62;;;13.07;83.24
37904;BME280;23738;50.422;18.758;2022-09-30T12:12:12;98046.45;;;13.11;83.26
37904;BME280;23738;50.422;18.758;2022-09-30T12:14:59;98048.98;;;13.15;83.39
37904;BME280;23738;50.422;18.758;2022-09-30T12:25:55;98059.19;;;13.21;83.26
37904;BME280;23738;50.422;18.758;2022-09-30T12:28:39;98056.47;;;13.18;83.14
37904;BME280;23738;50.422;18.758;2022-09-30T12:40:56;98078.81;;;13.01;82.95
37904;BME280;23738;50.422;18.758;2022-09-30T12:49:03;98086.20;;;12.99;82.97
37904;BME280;23738;50.422;18.758;2022-09-30T12:51:40;98096.05;;;13.01;82.92
37904;BME280;23738;50.422;18.758;2022-09-30T12:54:17;98095.78;;;13.00;82.90
37904;BME280;23738;50.422;18.758;2022-09-30T12:56:51;98095.78;;;13.00;82.90
37904;BME280;23738;50.422;18.758;2022-09-30T12:59:19;98099.45;;;12.99;82.86
37904;BME280;23738;50.422;18.758;2022-09-30T13:01:53;98098.13;;;12.99;82.88
37904;BME280;23738;50.422;18.758;2022-09-30T13:04:38;98098.94;;;13.00;82.80
37904;BME280;23738;50.422;18.758;2022-09-30T13:07:19;98097.63;;;13.00;82.71
37904;BME280;23738;50.422;18.758;2022-09-30T13:10:01;98093.44;;;12.92;82.64
37904;BME280;23738;50.422;18.758;2022-09-30T13:12:43;98103.16;;;12.89;82.71
37904;BME280;23738;50.422;18.758;2022-09-30T13:23:44;98109.06;;;12.82;82.69
37904;BME280;23738;50.422;18.758;2022-09-30T13:34:27;98111.25;;;12.85;82.74
37904;BME280;23738;50.422;18.758;2022-09-30T13:37:00;98121.80;;;12.92;82.60
37904;BME280;23738;50.422;18.758;2022-09-30T13:39:30;98121.80;;;12.92;82.60
37904;BME280;23738;50.422;18.758;2022-09-30T13:42:24;98124.58;;;12.88;82.59
37904;BME280;23738;50.422;18.758;2022-09-30T13:45:03;98129.59;;;12.87;82.66
37904;BME280;23738;50.422;18.758;2022-09-30T13:50:30;98128.56;;;12.88;82.65
37904;BME280;23738;50.422;18.758;2022-09-30T13:53:04;98130.98;;;12.89;82.64
37904;BME280;23738;50.422;18.758;2022-09-30T13:55:43;98127.70;;;12.85;82.51
37904;BME280;23738;50.422;18.758;2022-09-30T14:07:29;98118.35;;;12.73;82.52
37904;BME280;23738;50.422;18.758;2022-09-30T14:10:28;98109.59;;;12.73;82.50
37904;BME280;23738;50.422;18.758;2022-09-30T14:19:05;98102.37;;;12.71;82.54
37904;BME280;23738;50.422;18.758;2022-09-30T14:21:41;98103.34;;;12.76;82.66
37904;BME280;23738;50.422;18.758;2022-09-30T14:24:24;98106.25;;;12.77;82.59
37904;BME280;23738;50.422;18.758;2022-09-30T14:29:43;98108.91;;;12.77;82.55
37904;BME280;23738;50.422;18.758;2022-09-30T14:32:16;98099.36;;;12.76;82.57
37904;BME280;23738;50.422;18.758;2022-09-30T14:34:41;98099.41;;;12.79;82.65
37904;BME280;23738;50.422;18.758;2022-09-30T14:37:11;98104.42;;;12.78;82.66
37904;BME280;23738;50.422;18.758;2022-09-30T14:39:38;98108.69;;;12.79;82.63
37904;BME280;23738;50.422;18.758;2022-09-30T14:42:04;98114.28;;;12.80;82.63
37904;BME280;23738;50.422;18.758;2022-09-30T14:44:34;98115.91;;;12.81;82.65
37904;BME280;23738;50.422;18.758;2022-09-30T14:47:02;98124.38;;;12.80;82.63
37904;BME280;23738;50.422;18.758;2022-09-30T14:49:31;98130.41;;;12.78;82.66
37904;BME280;23738;50.422;18.758;2022-09-30T14:52:01;98134.25;;;12.82;82.76
37904;BME280;23738;50.422;18.758;2022-09-30T14:54:29;98136.52;;;12.79;82.55
37904;BME280;23738;50.422;18.758;2022-09-30T14:56:58;98142.58;;;12.77;82.47
37904;BME280;23738;50.422;18.758;2022-09-30T14:59:28;98143.83;;;12.74;82.51
37904;BME280;23738;50.422;18.758;2022-09-30T15:02:02;98155.45;;;12.73;82.50
37904;BME280;23738;50.422;18.758;2022-09-30T15:04:39;98165.54;;;12.74;82.54
37904;BME280;23738;50.422;18.758;2022-09-30T15:07:10;98168.11;;;12.71;82.46
37904;BME280;23738;50.422;18.758;2022-09-30T15:09:42;98175.33;;;12.73;82.45
37904;BME280;23738;50.422;18.758;2022-09-30T15:12:16;98180.93;;;12.74;82.41
37904;BME280;23738;50.422;18.758;2022-09-30T15:14:52;98186.23;;;12.74;82.43
37904;BME280;23738;50.422;18.758;2022-09-30T15:17:25;98186.74;;;12.74;82.44
37904;BME280;23738;50.422;18.758;2022-09-30T15:19:58;98177.77;;;12.75;82.44
37904;BME280;23738;50.422;18.758;2022-09-30T15:22:25;98177.55;;;12.76;82.47
37904;BME280;23738;50.422;18.758;2022-09-30T15:24:53;98177.30;;;12.78;82.36
37904;BME280;23738;50.422;18.758;2022-09-30T15:27:23;98179.69;;;12.77;82.33
37904;BME280;23738;50.422;18.758;2022-09-30T15:30:00;98175.71;;;12.77;82.33
37904;BME280;23738;50.422;18.758;2022-09-30T15:32:30;98168.19;;;12.74;82.27
37904;BME280;23738;50.422;18.758;2022-09-30T15:35:32;98172.38;;;12.72;82.33
37904;BME280;23738;50.422;18.758;2022-09-30T15:37:42;98175.33;;;12.73;82.36
37904;BME280;23738;50.422;18.758;2022-09-30T15:40:16;98182.69;;;12.71;82.34
37904;BME280;23738;50.422;18.758;2022-09-30T15:43:08;98186.06;;;12.69;82.25
37904;BME280;23738;50.422;18.758;2022-09-30T15:45:40;98187.39;;;12.69;82.28
37904;BME280;23738;50.422;18.758;2022-09-30T15:50:59;98181.95;;;12.64;82.25
37904;BME280;23738;50.422;18.758;2022-09-30T15:58:55;98176.52;;;12.59;82.17
37904;BME280;23738;50.422;18.758;2022-09-30T16:01:46;98188.14;;;12.58;82.17